createdAt,value
2023-05-19T00:00:00.296Z,12.90
2023-05-19T00:01:02.321Z,12.76
2023-05-19T00:02:09.094Z,12.79
2023-05-19T00:03:13.040Z,12.94
2023-05-19T00:04:17.820Z,12.96
2023-05-19T00:05:20.131Z,13.05
2023-05-19T00:06:25.385Z,13.07
2023-05-19T00:07:31.013Z,13.00
2023-05-19T00:08:35.462Z,12.95
2023-05-19T00:09:37.525Z,13.00
2023-05-19T00:10:40.706Z,12.87
2023-05-19T00:11:42.546Z,12.94
2023-05-19T00:12:46.250Z,12.89
2023-05-19T00:13:49.628Z,12.99
2023-05-19T00:14:52.917Z,13.09
2023-05-19T00:15:54.975Z,13.14
2023-05-19T00:16:57.988Z,13.22
2023-05-19T00:17:59.582Z,13.28
2023-05-19T00:19:03.936Z,13.20
2023-05-19T00:20:08.417Z,13.25
2023-05-19T00:21:10.986Z,13.20
2023-05-19T00:22:12.466Z,13.15
2023-05-19T00:23:14.921Z,13.07
2023-05-19T00:24:16.458Z,12.96
2023-05-19T00:25:18.932Z,13.16
2023-05-19T00:26:22.652Z,13.27
2023-05-19T00:27:25.130Z,13.25
2023-05-19T00:28:26.652Z,13.08
2023-05-19T00:29:29.530Z,13.07
2023-05-19T00:30:31.396Z,13.19
2023-05-19T00:31:35.083Z,13.26
2023-05-19T00:32:36.669Z,13.25
2023-05-19T00:33:39.166Z,13.19
2023-05-19T00:34:40.923Z,13.26
2023-05-19T00:35:44.716Z,13.21
2023-05-19T00:36:46.223Z,13.05
2023-05-19T00:37:48.848Z,13.08
2023-05-19T00:38:51.252Z,13.18
2023-05-19T00:39:53.714Z,13.27
2023-05-19T00:40:55.456Z,13.22
2023-05-19T00:41:58.192Z,13.22
2023-05-19T00:42:59.924Z,13.28
2023-05-19T00:44:02.517Z,13.32
2023-05-19T00:45:04.818Z,13.11
2023-05-19T00:46:07.784Z,13.16
2023-05-19T00:47:09.446Z,13.04
2023-05-19T00:48:11.906Z,13.00
2023-05-19T00:49:13.482Z,12.87
2023-05-19T00:50:16.209Z,12.57
2023-05-19T00:51:20.583Z,12.42
2023-05-19T00:52:22.184Z,12.56
2023-05-19T00:53:25.595Z,12.01
2023-05-19T00:54:27.481Z,11.45
2023-05-19T00:55:32.656Z,11.23
2023-05-19T00:56:34.203Z,10.98
2023-05-19T00:57:37.084Z,10.75
2023-05-19T00:58:39.272Z,10.63
2023-05-19T00:59:41.860Z,10.83
2023-05-19T01:00:44.278Z,11.26
2023-05-19T01:01:49.032Z,11.60
2023-05-19T01:02:51.176Z,11.76
2023-05-19T01:03:56.707Z,11.96
2023-05-19T01:04:59.548Z,12.21
2023-05-19T01:06:04.877Z,12.17
2023-05-19T01:07:07.955Z,11.98
2023-05-19T01:08:10.521Z,11.52
2023-05-19T01:09:12.293Z,11.46
2023-05-19T01:10:14.830Z,11.56
2023-05-19T01:11:16.310Z,11.65
2023-05-19T01:12:18.955Z,11.62
2023-05-19T01:13:20.774Z,11.43
2023-05-19T01:14:23.601Z,11.35
2023-05-19T01:15:27.531Z,11.27
2023-05-19T01:16:32.403Z,11.29
2023-05-19T01:17:45.803Z,10.93
2023-05-19T01:20:13.593Z,10.87
2023-05-19T01:21:37.626Z,10.77
2023-05-19T01:23:00.377Z,10.65
2023-05-19T01:24:14.296Z,10.52
2023-05-19T01:25:45.239Z,10.55
2023-05-19T01:27:19.583Z,10.45
2023-05-19T01:28:32.557Z,10.83
2023-05-19T01:29:44.195Z,10.83
2023-05-19T01:30:52.576Z,10.78
2023-05-19T01:32:00.313Z,11.13
2023-05-19T01:33:06.748Z,10.95
2023-05-19T01:34:11.632Z,10.88
2023-05-19T01:35:15.482Z,10.98
2023-05-19T01:36:20.115Z,11.23
2023-05-19T01:37:21.971Z,11.61
2023-05-19T01:38:26.074Z,11.88
2023-05-19T01:39:28.465Z,12.09
2023-05-19T01:40:31.883Z,12.01
2023-05-19T01:41:34.589Z,12.18
2023-05-19T01:42:39.982Z,12.19
2023-05-19T01:43:42.470Z,12.25
2023-05-19T01:44:45.562Z,12.39
2023-05-19T01:45:49.030Z,12.45
2023-05-19T01:46:52.026Z,12.60
2023-05-19T01:47:56.119Z,12.72
2023-05-19T01:48:59.533Z,12.70
2023-05-19T01:50:01.055Z,12.78
2023-05-19T01:51:03.660Z,12.79
2023-05-19T01:52:05.926Z,12.77
2023-05-19T01:53:08.628Z,12.73
2023-05-19T01:54:10.142Z,12.77
2023-05-19T01:55:12.706Z,12.82
2023-05-19T01:56:19.437Z,12.71
2023-05-19T01:57:30.073Z,12.84
2023-05-19T01:58:40.716Z,12.84
2023-05-19T01:59:52.176Z,12.79
2023-05-19T02:01:03.078Z,12.71
2023-05-19T02:02:17.308Z,12.75
2023-05-19T02:03:40.933Z,12.25
2023-05-19T02:04:51.739Z,12.05
2023-05-19T02:05:55.971Z,12.25
2023-05-19T02:07:04.532Z,12.36
2023-05-19T02:08:13.042Z,12.53
2023-05-19T02:09:19.556Z,12.47
2023-05-19T02:10:27.363Z,12.61
2023-05-19T02:11:37.842Z,12.69
2023-05-19T02:12:40.673Z,12.68
2023-05-19T02:13:45.474Z,12.78
2023-05-19T02:14:51.730Z,12.84
2023-05-19T02:15:58.804Z,12.93
2023-05-19T02:17:00.981Z,12.96
2023-05-19T02:18:04.701Z,13.03
2023-05-19T02:19:06.335Z,13.04
2023-05-19T02:20:10.038Z,13.05
2023-05-19T02:21:13.375Z,13.06
2023-05-19T02:22:15.959Z,12.90
2023-05-19T02:23:17.469Z,12.91
2023-05-19T02:24:22.735Z,12.97
2023-05-19T02:25:24.421Z,12.99
2023-05-19T02:26:26.960Z,13.05
2023-05-19T02:27:28.562Z,13.06
2023-05-19T02:28:31.013Z,13.10
2023-05-19T02:29:32.591Z,12.91
2023-05-19T02:30:35.193Z,12.95
2023-05-19T02:31:38.223Z,13.05
2023-05-19T02:32:41.084Z,13.06
2023-05-19T02:33:43.600Z,13.13
2023-05-19T02:34:46.137Z,13.09
2023-05-19T02:35:47.632Z,13.06
2023-05-19T02:36:50.661Z,13.10
2023-05-19T02:37:52.404Z,13.11
2023-05-19T02:38:54.883Z,12.96
2023-05-19T02:39:56.638Z,12.80
2023-05-19T02:40:59.061Z,12.87
2023-05-19T02:42:00.777Z,12.88
2023-05-19T02:43:03.439Z,12.82
2023-05-19T02:44:05.347Z,12.97
2023-05-19T02:45:08.803Z,12.96
2023-05-19T02:46:10.376Z,13.05
2023-05-19T02:47:14.496Z,12.93
2023-05-19T02:48:16.017Z,12.96
2023-05-19T02:49:18.509Z,12.96
2023-05-19T02:50:20.061Z,12.97
2023-05-19T02:51:22.481Z,12.91
2023-05-19T02:52:23.989Z,12.87
2023-05-19T02:53:26.535Z,12.60
2023-05-19T02:54:28.031Z,12.41
2023-05-19T02:55:30.473Z,12.45
2023-05-19T02:56:31.976Z,12.57
2023-05-19T02:57:35.932Z,12.68
2023-05-19T02:58:37.477Z,12.85
2023-05-19T02:59:39.911Z,12.93
2023-05-19T03:00:41.425Z,13.00
2023-05-19T03:01:43.941Z,12.79
2023-05-19T03:02:47.012Z,12.75
2023-05-19T03:03:49.707Z,12.87
2023-05-19T03:04:51.590Z,12.85
2023-05-19T03:05:54.479Z,12.65
2023-05-19T03:06:56.084Z,12.42
2023-05-19T03:07:58.688Z,12.44
2023-05-19T03:09:00.256Z,12.57
2023-05-19T03:10:04.004Z,12.58
2023-05-19T03:11:05.849Z,12.65
2023-05-19T03:12:08.536Z,12.70
2023-05-19T03:13:10.036Z,12.72
2023-05-19T03:14:13.712Z,12.70
2023-05-19T03:15:16.409Z,12.77
2023-05-19T03:16:19.077Z,12.84
2023-05-19T03:17:20.801Z,12.82
2023-05-19T03:18:25.234Z,12.79
2023-05-19T03:19:27.593Z,12.81
2023-05-19T03:20:30.972Z,12.84
2023-05-19T03:21:34.457Z,12.61
2023-05-19T03:22:36.914Z,12.65
2023-05-19T03:23:38.401Z,12.46
2023-05-19T03:24:40.826Z,12.52
2023-05-19T03:25:42.440Z,12.49
2023-05-19T03:26:45.019Z,12.22
2023-05-19T03:27:46.552Z,12.16
2023-05-19T03:28:49.118Z,11.99
2023-05-19T03:29:51.248Z,11.74
2023-05-19T03:30:53.759Z,12.01
2023-05-19T03:31:55.430Z,11.72
2023-05-19T03:32:58.007Z,11.84
2023-05-19T03:34:00.952Z,12.10
2023-05-19T03:35:03.420Z,11.74
2023-05-19T03:36:05.837Z,12.02
2023-05-19T03:37:08.261Z,12.19
2023-05-19T03:38:09.811Z,12.38
2023-05-19T03:39:12.558Z,11.97
2023-05-19T03:40:14.127Z,11.66
2023-05-19T03:41:16.909Z,11.54
2023-05-19T03:42:18.469Z,11.73
2023-05-19T03:43:20.921Z,11.50
2023-05-19T03:44:22.436Z,11.61
2023-05-19T03:45:24.922Z,11.75
2023-05-19T03:46:26.637Z,11.76
2023-05-19T03:47:29.222Z,11.80
2023-05-19T03:48:30.791Z,11.98
2023-05-19T03:49:34.719Z,11.93
2023-05-19T03:50:37.961Z,11.77
2023-05-19T03:51:41.037Z,11.83
2023-05-19T03:52:45.528Z,11.83
2023-05-19T03:53:48.696Z,12.02
2023-05-19T03:54:51.257Z,12.17
2023-05-19T03:55:55.456Z,12.03
2023-05-19T03:56:57.072Z,12.11
2023-05-19T03:57:59.588Z,12.16
2023-05-19T03:59:01.101Z,12.30
2023-05-19T04:00:04.093Z,12.28
2023-05-19T04:01:05.687Z,12.38
2023-05-19T04:02:08.389Z,12.07
2023-05-19T04:03:10.262Z,12.10
2023-05-19T04:04:12.918Z,11.78
2023-05-19T04:05:16.045Z,11.90
2023-05-19T04:06:19.083Z,12.10
2023-05-19T04:07:20.803Z,12.30
2023-05-19T04:08:23.274Z,12.16
2023-05-19T04:09:24.798Z,12.22
2023-05-19T04:10:27.241Z,11.76
2023-05-19T04:11:28.737Z,11.77
2023-05-19T04:12:31.917Z,11.82
2023-05-19T04:13:34.039Z,11.68
2023-05-19T04:14:36.450Z,11.74
2023-05-19T04:15:38.030Z,11.58
2023-05-19T04:16:41.667Z,11.28
2023-05-19T04:17:43.314Z,11.59
2023-05-19T04:18:46.439Z,11.44
2023-05-19T04:19:48.115Z,11.74
2023-05-19T04:20:52.098Z,11.88
2023-05-19T04:21:53.598Z,11.73
2023-05-19T04:22:56.013Z,11.87
2023-05-19T04:23:59.153Z,11.90
2023-05-19T04:25:01.801Z,11.79
2023-05-19T04:26:03.822Z,11.91
2023-05-19T04:27:12.115Z,11.78
2023-05-19T04:28:13.715Z,12.05
2023-05-19T04:29:17.977Z,12.11
2023-05-19T04:30:22.485Z,12.14
2023-05-19T04:31:26.134Z,11.69
2023-05-19T04:32:29.275Z,11.72
2023-05-19T04:33:33.921Z,11.93
2023-05-19T04:34:35.488Z,11.70
2023-05-19T04:35:39.643Z,11.80
2023-05-19T04:36:42.546Z,11.88
2023-05-19T04:37:45.901Z,11.97
2023-05-19T04:38:47.833Z,12.18
2023-05-19T04:39:50.365Z,11.73
2023-05-19T04:40:52.006Z,11.24
2023-05-19T04:41:55.003Z,11.35
2023-05-19T04:42:57.173Z,11.66
2023-05-19T04:43:59.618Z,11.57
2023-05-19T04:45:01.145Z,11.62
2023-05-19T04:46:06.118Z,11.36
2023-05-19T04:47:08.840Z,11.40
2023-05-19T04:48:12.219Z,11.52
2023-05-19T04:49:14.464Z,11.47
2023-05-19T04:50:17.259Z,11.53
2023-05-19T04:51:18.829Z,11.91
2023-05-19T04:52:22.788Z,11.61
2023-05-19T04:53:25.630Z,11.66
2023-05-19T04:54:28.578Z,11.49
2023-05-19T04:55:30.207Z,11.69
2023-05-19T04:56:32.642Z,11.57
2023-05-19T04:57:34.196Z,11.06
2023-05-19T04:58:39.105Z,11.29
2023-05-19T04:59:41.603Z,11.62
2023-05-19T05:00:44.069Z,11.85
2023-05-19T05:01:45.603Z,11.76
2023-05-19T05:02:49.063Z,11.66
2023-05-19T05:03:50.774Z,11.74
2023-05-19T05:04:54.469Z,11.96
2023-05-19T05:05:56.712Z,11.97
2023-05-19T05:06:59.259Z,12.00
2023-05-19T05:08:03.111Z,12.03
2023-05-19T05:09:05.603Z,12.27
2023-05-19T05:10:08.394Z,12.46
2023-05-19T05:11:11.735Z,12.50
2023-05-19T05:12:14.960Z,11.98
2023-05-19T05:13:17.917Z,11.77
2023-05-19T05:14:19.915Z,11.76
2023-05-19T05:15:24.224Z,11.99
2023-05-19T05:16:26.825Z,12.11
2023-05-19T05:17:29.769Z,11.98
2023-05-19T05:18:31.816Z,11.99
2023-05-19T05:19:35.116Z,11.89
2023-05-19T05:20:37.388Z,11.94
2023-05-19T05:21:41.465Z,12.23
2023-05-19T05:22:43.523Z,12.27
2023-05-19T05:23:47.866Z,12.21
2023-05-19T05:24:49.920Z,12.44
2023-05-19T05:25:52.995Z,12.60
2023-05-19T05:26:54.524Z,12.71
2023-05-19T05:27:58.874Z,12.80
2023-05-19T05:29:00.486Z,12.92
2023-05-19T05:30:02.983Z,12.95
2023-05-19T05:31:04.640Z,12.92
2023-05-19T05:32:07.944Z,13.00
2023-05-19T05:33:09.835Z,12.97
2023-05-19T05:34:12.573Z,12.94
2023-05-19T05:35:14.074Z,13.05
2023-05-19T05:36:16.576Z,13.19
2023-05-19T05:37:18.078Z,12.95
2023-05-19T05:38:20.631Z,12.97
2023-05-19T05:39:23.527Z,12.73
2023-05-19T05:40:26.177Z,12.89
2023-05-19T05:41:29.242Z,12.90
2023-05-19T05:42:31.800Z,12.88
2023-05-19T05:43:33.328Z,13.10
2023-05-19T05:44:36.169Z,13.22
2023-05-19T05:45:37.695Z,13.20
2023-05-19T05:46:40.591Z,13.23
2023-05-19T05:47:42.739Z,13.10
2023-05-19T05:48:45.931Z,13.20
2023-05-19T05:49:48.717Z,12.86
2023-05-19T05:50:53.007Z,12.95
2023-05-19T05:53:07.129Z,13.10
2023-05-19T05:54:12.151Z,12.74
2023-05-19T05:55:18.285Z,12.87
2023-05-19T05:56:20.876Z,12.82
2023-05-19T05:57:23.877Z,13.17
2023-05-19T05:58:25.868Z,13.53
2023-05-19T05:59:28.401Z,13.75
2023-05-19T06:00:30.240Z,13.88
2023-05-19T06:01:35.440Z,14.08
2023-05-19T06:02:37.262Z,14.18
2023-05-19T06:03:41.691Z,14.25
2023-05-19T06:04:43.950Z,14.27
2023-05-19T06:05:46.465Z,14.04
2023-05-19T06:06:48.973Z,13.94
2023-05-19T06:07:50.478Z,13.99
2023-05-19T06:08:53.081Z,14.24
2023-05-19T06:09:54.653Z,14.29
2023-05-19T06:10:58.956Z,14.36
2023-05-19T06:12:00.493Z,14.38
2023-05-19T06:13:02.969Z,14.43
2023-05-19T06:14:04.597Z,14.64
2023-05-19T06:15:08.860Z,14.56
2023-05-19T06:16:10.526Z,14.47
2023-05-19T06:17:13.148Z,14.19
2023-05-19T06:18:14.798Z,14.04
2023-05-19T06:19:17.391Z,14.01
2023-05-19T06:20:19.969Z,13.71
2023-05-19T06:21:22.738Z,13.47
2023-05-19T06:22:24.290Z,13.68
2023-05-19T06:23:28.986Z,13.98
2023-05-19T06:24:30.582Z,14.08
2023-05-19T06:25:33.384Z,14.22
2023-05-19T06:26:36.439Z,14.31
2023-05-19T06:27:38.996Z,14.28
2023-05-19T06:28:40.704Z,14.36
2023-05-19T06:29:43.176Z,14.28
2023-05-19T06:30:44.853Z,14.39
2023-05-19T06:31:47.377Z,14.51
2023-05-19T06:32:48.917Z,14.51
2023-05-19T06:33:51.388Z,14.62
2023-05-19T06:34:54.893Z,14.35
2023-05-19T06:35:56.401Z,14.52
2023-05-19T06:36:58.840Z,14.37
2023-05-19T06:38:00.606Z,14.29
2023-05-19T06:39:03.345Z,14.44
2023-05-19T06:40:05.825Z,14.44
2023-05-19T06:41:08.361Z,14.29
2023-05-19T06:42:11.267Z,14.45
2023-05-19T06:43:13.753Z,14.48
2023-05-19T06:44:15.489Z,14.38
2023-05-19T06:45:21.738Z,14.59
2023-05-19T06:46:24.236Z,14.65
2023-05-19T06:47:26.092Z,14.71
2023-05-19T06:48:28.678Z,14.77
2023-05-19T06:49:30.398Z,14.75
2023-05-19T06:50:33.099Z,14.43
2023-05-19T06:51:35.375Z,14.32
2023-05-19T06:52:39.138Z,14.40
2023-05-19T06:53:41.899Z,14.41
2023-05-19T06:54:44.382Z,14.61
2023-05-19T06:55:58.125Z,14.40
2023-05-19T06:57:02.134Z,14.51
2023-05-19T06:58:05.011Z,14.10
2023-05-19T06:59:07.432Z,14.28
2023-05-19T07:00:11.543Z,14.43
2023-05-19T07:01:14.055Z,14.53
2023-05-19T07:02:15.777Z,14.53
2023-05-19T07:03:18.364Z,14.38
2023-05-19T07:04:20.948Z,14.37
2023-05-19T07:05:22.623Z,14.75
2023-05-19T07:06:25.126Z,14.21
2023-05-19T07:07:27.137Z,14.24
2023-05-19T07:08:29.713Z,14.36
2023-05-19T07:09:31.249Z,14.37
2023-05-19T07:10:33.878Z,14.54
2023-05-19T07:11:35.626Z,14.78
2023-05-19T07:12:38.074Z,14.80
2023-05-19T07:13:41.877Z,14.99
2023-05-19T07:14:43.384Z,15.22
2023-05-19T07:15:46.330Z,15.33
2023-05-19T07:16:47.994Z,15.30
2023-05-19T07:17:50.845Z,15.11
2023-05-19T07:18:52.642Z,15.08
2023-05-19T07:19:55.122Z,15.37
2023-05-19T07:20:58.308Z,15.13
2023-05-19T07:22:00.775Z,15.08
2023-05-19T07:23:02.803Z,15.04
2023-05-19T07:24:05.534Z,15.22
2023-05-19T07:25:07.602Z,15.24
2023-05-19T07:26:10.346Z,15.37
2023-05-19T07:27:11.899Z,15.39
2023-05-19T07:28:14.367Z,15.59
2023-05-19T07:29:17.197Z,15.82
2023-05-19T07:30:19.719Z,15.65
2023-05-19T07:31:21.645Z,15.56
2023-05-19T07:32:24.369Z,15.25
2023-05-19T07:33:27.744Z,14.84
2023-05-19T07:34:30.241Z,15.12
2023-05-19T07:35:32.826Z,15.28
2023-05-19T07:36:34.409Z,15.49
2023-05-19T07:37:36.966Z,15.67
2023-05-19T07:38:39.550Z,15.31
2023-05-19T07:39:41.134Z,15.29
2023-05-19T07:40:43.606Z,15.22
2023-05-19T07:41:45.136Z,15.18
2023-05-19T07:42:50.045Z,15.17
2023-05-19T07:43:51.767Z,14.89
2023-05-19T07:44:55.567Z,15.09
2023-05-19T07:45:57.275Z,15.13
2023-05-19T07:46:59.854Z,14.88
2023-05-19T07:48:02.324Z,15.21
2023-05-19T07:49:05.339Z,15.17
2023-05-19T07:50:07.825Z,15.43
2023-05-19T07:51:10.522Z,15.56
2023-05-19T07:52:12.957Z,15.64
2023-05-19T07:53:14.631Z,15.71
2023-05-19T07:54:17.108Z,15.71
2023-05-19T07:55:19.199Z,15.90
2023-05-19T07:56:22.025Z,15.83
2023-05-19T07:57:25.643Z,15.56
2023-05-19T07:58:28.262Z,15.67
2023-05-19T07:59:30.927Z,15.71
2023-05-19T08:00:33.959Z,15.71
2023-05-19T08:01:36.803Z,15.88
2023-05-19T08:02:38.500Z,15.61
2023-05-19T08:03:41.089Z,15.54
2023-05-19T08:04:43.704Z,15.62
2023-05-19T08:05:45.545Z,15.77
2023-05-19T08:06:47.994Z,15.83
2023-05-19T08:07:50.600Z,15.65
2023-05-19T08:08:54.245Z,15.80
2023-05-19T08:09:55.877Z,15.74
2023-05-19T08:10:58.363Z,15.98
2023-05-19T08:12:01.482Z,16.04
2023-05-19T08:13:03.056Z,16.07
2023-05-19T08:14:05.729Z,16.23
2023-05-19T08:15:08.498Z,16.16
2023-05-19T08:16:12.296Z,16.13
2023-05-19T08:17:14.838Z,15.98
2023-05-19T08:18:16.476Z,15.97
2023-05-19T08:19:19.024Z,15.94
2023-05-19T08:20:22.444Z,16.01
2023-05-19T08:21:25.021Z,16.18
2023-05-19T08:22:28.196Z,16.08
2023-05-19T08:23:30.819Z,15.96
2023-05-19T08:24:33.931Z,15.96
2023-05-19T08:25:35.620Z,15.85
2023-05-19T08:26:38.268Z,15.69
2023-05-19T08:27:40.783Z,15.90
2023-05-19T08:28:42.332Z,15.89
2023-05-19T08:29:44.843Z,16.12
2023-05-19T08:30:47.392Z,16.44
2023-05-19T08:31:53.039Z,16.55
2023-05-19T08:32:55.658Z,16.46
2023-05-19T08:33:58.140Z,16.32
2023-05-19T08:34:59.726Z,16.23
2023-05-19T08:36:02.312Z,16.34
2023-05-19T08:37:04.360Z,16.57
2023-05-19T08:38:25.487Z,16.55
2023-05-19T08:39:46.797Z,16.66
2023-05-19T08:41:08.096Z,16.87
2023-05-19T08:42:32.842Z,16.96
2023-05-19T08:43:56.092Z,17.12
2023-05-19T08:45:19.015Z,16.75
2023-05-19T08:46:42.238Z,16.64
2023-05-19T08:48:07.675Z,16.78
2023-05-19T08:49:34.777Z,16.90
2023-05-19T08:51:08.655Z,16.96
2023-05-19T08:52:36.663Z,16.86
2023-05-19T08:54:08.405Z,16.33
2023-05-19T08:55:36.922Z,16.62
2023-05-19T08:57:00.097Z,17.10
2023-05-19T08:58:23.526Z,17.11
2023-05-19T08:59:46.693Z,17.21
2023-05-19T09:01:09.790Z,17.25
2023-05-19T09:02:33.542Z,17.55
2023-05-19T09:03:58.091Z,17.46
2023-05-19T09:05:21.343Z,17.20
2023-05-19T09:06:45.075Z,17.27
2023-05-19T09:08:08.495Z,17.30
2023-05-19T09:09:31.580Z,17.28
2023-05-19T09:10:54.380Z,17.29
2023-05-19T09:12:17.376Z,17.62
2023-05-19T09:13:40.940Z,17.73
2023-05-19T09:15:04.705Z,17.17
2023-05-19T09:16:29.939Z,17.23
2023-05-19T09:18:04.054Z,17.53
2023-05-19T09:19:30.177Z,17.73
2023-05-19T09:20:59.265Z,17.68
2023-05-19T09:22:22.266Z,17.50
2023-05-19T09:23:48.721Z,17.22
2023-05-19T09:25:20.444Z,16.72
2023-05-19T09:26:44.000Z,16.99
2023-05-19T09:28:09.741Z,16.65
2023-05-19T09:29:32.584Z,17.12
2023-05-19T09:31:01.422Z,17.53
2023-05-19T09:32:28.279Z,17.63
2023-05-19T09:33:53.339Z,17.21
2023-05-19T09:35:20.154Z,17.38
2023-05-19T09:36:43.372Z,17.86
2023-05-19T09:38:06.281Z,18.04
2023-05-19T09:39:29.671Z,18.32
2023-05-19T09:40:53.122Z,18.63
2023-05-19T09:42:16.729Z,18.76
2023-05-19T09:43:39.550Z,18.56
2023-05-19T09:45:01.729Z,18.66
2023-05-19T09:46:26.658Z,18.32
2023-05-19T09:47:49.587Z,18.41
2023-05-19T09:49:12.896Z,18.94
2023-05-19T09:50:37.364Z,18.70
2023-05-19T09:52:01.076Z,18.47
2023-05-19T09:53:25.364Z,17.30
2023-05-19T09:54:49.929Z,17.31
2023-05-19T09:56:15.290Z,17.61
2023-05-19T09:57:38.808Z,18.04
2023-05-19T09:59:02.525Z,18.36
2023-05-19T10:00:26.339Z,18.22
2023-05-19T10:01:49.741Z,18.14
2023-05-19T10:03:13.430Z,18.48
2023-05-19T10:04:37.160Z,18.68
2023-05-19T10:06:02.598Z,18.67
2023-05-19T10:07:25.627Z,18.61
2023-05-19T10:08:50.450Z,18.88
2023-05-19T10:10:14.401Z,18.52
2023-05-19T10:11:37.575Z,18.11
2023-05-19T10:13:01.223Z,18.67
2023-05-19T10:14:24.583Z,18.37
2023-05-19T10:15:57.987Z,18.29
2023-05-19T10:17:22.560Z,18.31
2023-05-19T10:18:45.780Z,18.57
2023-05-19T10:20:10.887Z,18.84
2023-05-19T10:21:35.078Z,18.81
2023-05-19T10:22:57.903Z,18.95
2023-05-19T10:24:21.386Z,18.43
2023-05-19T10:25:44.828Z,18.42
2023-05-19T10:27:11.761Z,19.26
2023-05-19T10:28:37.954Z,19.89
2023-05-19T10:30:09.264Z,20.29
2023-05-19T10:31:35.643Z,18.90
2023-05-19T10:33:01.013Z,18.84
2023-05-19T10:34:59.613Z,19.15
2023-05-19T10:36:40.127Z,20.30
2023-05-19T10:38:16.271Z,21.33
2023-05-19T10:39:44.233Z,22.97
2023-05-19T10:41:12.328Z,22.36
2023-05-19T10:42:44.272Z,22.25
2023-05-19T10:44:13.598Z,20.78
2023-05-19T10:45:46.981Z,19.76
2023-05-19T10:47:12.113Z,19.18
2023-05-19T10:48:36.459Z,20.08
2023-05-19T10:50:01.670Z,20.41
2023-05-19T10:51:31.356Z,20.52
2023-05-19T10:52:55.848Z,21.47
2023-05-19T10:54:40.727Z,22.40
2023-05-19T10:56:04.294Z,21.56
2023-05-19T10:57:28.697Z,20.90
2023-05-19T10:58:52.106Z,19.15
2023-05-19T11:00:28.834Z,18.67
2023-05-19T11:01:51.732Z,18.43
2023-05-19T11:03:14.760Z,18.17
2023-05-19T11:04:48.892Z,17.66
2023-05-19T11:06:21.639Z,18.41
2023-05-19T11:07:46.222Z,19.31
2023-05-19T11:09:14.435Z,19.99
2023-05-19T11:10:38.672Z,19.96
2023-05-19T11:12:04.344Z,20.47
2023-05-19T11:13:28.624Z,20.31
2023-05-19T11:14:53.700Z,20.25
2023-05-19T11:16:20.515Z,20.78
2023-05-19T11:17:48.305Z,21.09
2023-05-19T11:19:19.829Z,20.85
2023-05-19T11:20:44.308Z,20.83
2023-05-19T11:22:11.595Z,20.41
2023-05-19T11:23:35.563Z,19.78
2023-05-19T11:24:58.737Z,19.58
2023-05-19T11:26:44.191Z,19.49
2023-05-19T11:28:07.025Z,19.18
2023-05-19T11:29:34.219Z,19.50
2023-05-19T11:31:00.048Z,20.47
2023-05-19T11:32:24.012Z,21.12
2023-05-19T11:33:47.005Z,21.16
2023-05-19T11:35:11.191Z,22.02
2023-05-19T11:36:34.974Z,22.19
2023-05-19T11:37:58.158Z,22.10
2023-05-19T11:39:21.162Z,21.72
2023-05-19T11:40:44.810Z,22.40
2023-05-19T11:42:10.525Z,22.45
2023-05-19T11:43:33.505Z,22.16
2023-05-19T11:44:57.133Z,21.94
2023-05-19T11:46:20.100Z,21.19
2023-05-19T11:48:00.876Z,20.58
2023-05-19T11:49:25.176Z,19.81
2023-05-19T11:50:48.034Z,20.56
2023-05-19T11:52:11.084Z,21.14
2023-05-19T11:53:36.630Z,20.88
2023-05-19T11:55:01.678Z,20.94
2023-05-19T11:56:24.783Z,20.93
2023-05-19T11:59:32.296Z,22.01
2023-05-19T12:00:56.567Z,22.09
2023-05-19T12:02:20.765Z,21.89
2023-05-19T12:03:44.026Z,22.14
2023-05-19T12:05:07.578Z,22.39
2023-05-19T12:06:31.135Z,20.07
2023-05-19T12:07:54.123Z,19.81
2023-05-19T12:09:16.998Z,20.01
2023-05-19T12:10:40.598Z,20.05
2023-05-19T12:12:03.732Z,20.64
2023-05-19T12:13:28.481Z,21.16
2023-05-19T12:14:53.518Z,21.21
2023-05-19T12:16:16.411Z,20.50
2023-05-19T12:17:38.328Z,21.06
2023-05-19T12:19:01.297Z,21.37
2023-05-19T12:20:24.626Z,21.42
2023-05-19T12:21:47.626Z,21.91
2023-05-19T12:23:11.105Z,22.96
2023-05-19T12:24:34.559Z,22.48
2023-05-19T12:25:57.622Z,22.75
2023-05-19T12:27:22.013Z,22.70
2023-05-19T12:28:47.738Z,22.18
2023-05-19T12:30:12.706Z,22.53
2023-05-19T12:31:35.762Z,22.48
2023-05-19T12:32:59.097Z,22.43
2023-05-19T12:34:22.154Z,21.50
2023-05-19T12:35:46.110Z,21.61
2023-05-19T12:37:08.991Z,22.27
2023-05-19T12:38:31.859Z,22.97
2023-05-19T12:39:56.298Z,22.85
2023-05-19T12:41:19.428Z,23.31
2023-05-19T12:42:45.742Z,23.26
2023-05-19T12:44:16.203Z,22.86
2023-05-19T12:45:42.507Z,23.41
2023-05-19T12:47:05.005Z,23.55
2023-05-19T12:48:29.569Z,23.46
2023-05-19T12:49:56.412Z,23.12
2023-05-19T12:51:19.732Z,22.81
2023-05-19T12:52:45.058Z,22.99
2023-05-19T12:54:07.898Z,22.91
2023-05-19T12:55:30.968Z,23.64
2023-05-19T12:56:53.926Z,23.74
2023-05-19T12:58:17.138Z,23.99
2023-05-19T12:59:43.590Z,23.56
2023-05-19T13:01:08.730Z,20.97
2023-05-19T13:02:31.684Z,21.14
2023-05-19T13:03:54.808Z,21.54
2023-05-19T13:05:17.963Z,21.09
2023-05-19T13:06:41.745Z,21.09
2023-05-19T13:08:07.636Z,21.14
2023-05-19T13:09:34.979Z,21.42
2023-05-19T13:10:57.855Z,21.50
2023-05-19T13:12:21.188Z,20.84
2023-05-19T13:13:44.048Z,20.96
2023-05-19T13:15:09.106Z,21.42
2023-05-19T13:16:32.041Z,21.67
2023-05-19T13:17:56.224Z,21.32
2023-05-19T13:20:49.102Z,20.54
2023-05-19T13:22:11.928Z,20.79
2023-05-19T13:23:35.894Z,21.05
2023-05-19T13:24:59.810Z,21.41
2023-05-19T13:26:23.486Z,22.06
2023-05-19T13:27:46.118Z,21.67
2023-05-19T13:29:09.430Z,21.37
2023-05-19T13:30:33.062Z,21.75
2023-05-19T13:31:56.113Z,22.17
2023-05-19T13:33:18.067Z,21.93
2023-05-19T13:34:40.916Z,21.32
2023-05-19T13:36:03.720Z,21.08
2023-05-19T13:37:26.896Z,21.29
2023-05-19T13:38:49.720Z,21.58
2023-05-19T13:40:15.647Z,21.55
2023-05-19T13:41:38.476Z,21.43
2023-05-19T13:43:02.491Z,20.67
2023-05-19T13:44:25.815Z,20.54
2023-05-19T13:45:50.404Z,20.72
2023-05-19T13:47:13.814Z,20.94
2023-05-19T13:48:36.616Z,20.81
2023-05-19T13:49:59.466Z,21.04
2023-05-19T13:51:22.434Z,21.30
2023-05-19T13:52:45.342Z,21.48
2023-05-19T13:54:08.145Z,21.17
2023-05-19T13:55:31.183Z,21.49
2023-05-19T13:56:54.229Z,21.09
2023-05-19T13:58:17.985Z,21.04
2023-05-19T13:59:57.298Z,21.38
2023-05-19T14:01:25.807Z,20.96
2023-05-19T14:02:48.676Z,20.85
2023-05-19T14:04:11.834Z,20.72
2023-05-19T14:05:35.561Z,20.66
2023-05-19T14:06:58.638Z,20.71
2023-05-19T14:08:22.067Z,21.01
2023-05-19T14:09:46.084Z,21.13
2023-05-19T14:11:08.915Z,21.27
2023-05-19T14:12:41.586Z,21.36
2023-05-19T14:14:11.391Z,21.62
2023-05-19T14:15:37.829Z,21.45
2023-05-19T14:17:02.255Z,21.33
2023-05-19T14:18:25.045Z,21.49
2023-05-19T14:19:47.851Z,21.14
2023-05-19T14:21:10.693Z,21.10
2023-05-19T14:22:33.513Z,21.30
2023-05-19T14:23:56.316Z,21.01
2023-05-19T14:25:19.309Z,21.12
2023-05-19T14:26:42.094Z,20.82
2023-05-19T14:28:05.155Z,20.25
2023-05-19T14:29:31.041Z,20.27
2023-05-19T14:30:53.907Z,20.54
2023-05-19T14:32:18.110Z,20.94
2023-05-19T14:33:41.161Z,21.20
2023-05-19T14:35:04.295Z,20.78
2023-05-19T14:36:27.148Z,20.43
2023-05-19T14:37:52.308Z,20.36
2023-05-19T14:39:15.139Z,20.35
2023-05-19T14:40:37.308Z,20.57
2023-05-19T14:42:00.876Z,20.61
2023-05-19T14:43:24.054Z,20.78
2023-05-19T14:44:46.836Z,21.00
2023-05-19T14:46:09.816Z,20.97
2023-05-19T14:47:34.202Z,20.62
2023-05-19T14:48:57.109Z,20.84
2023-05-19T14:50:19.968Z,20.69
2023-05-19T14:51:42.759Z,20.95
2023-05-19T14:53:04.727Z,20.80
2023-05-19T14:54:27.536Z,20.58
2023-05-19T14:55:50.298Z,20.45
2023-05-19T14:57:13.113Z,20.46
2023-05-19T14:58:36.251Z,20.49
2023-05-19T14:59:59.047Z,20.35
2023-05-19T15:01:21.918Z,20.10
2023-05-19T15:02:46.284Z,20.48
2023-05-19T15:04:09.153Z,20.30
2023-05-19T15:05:31.982Z,20.28
2023-05-19T15:07:05.953Z,19.98
2023-05-19T15:08:32.314Z,19.66
2023-05-19T15:09:55.167Z,19.63
2023-05-19T15:11:17.991Z,19.90
2023-05-19T15:12:41.128Z,20.06
2023-05-19T15:14:04.332Z,20.40
2023-05-19T15:15:27.148Z,20.26
2023-05-19T15:16:50.071Z,20.35
2023-05-19T15:18:16.129Z,20.35
2023-05-19T15:19:40.927Z,19.94
2023-05-19T15:21:03.708Z,19.65
2023-05-19T15:22:26.524Z,19.69